Time;durP1;ratioP1;P1;durP2;ratioP2;P2;SDS_P1;SDS_P2;PMS_P1;PMS_P2;Temp;Humidity;BMP_temperature;BMP_pressure;BME280_temperature;BME280_humidity;BME280_pressure;Samples;Min_cycle;Max_cycle;Signal;HPM_P1;HPM_P2
2021/12/02 00:01:35;;;;;;;12.00;2.08;;;4.00;99.90;;;;;;5113016;28;20465;-57
2021/12/02 00:04:01;;;;;;;10.57;1.98;;;4.00;99.90;;;;;;5112648;28;20097;-56
2021/12/02 00:06:27;;;;;;;8.27;1.65;;;4.00;99.90;;;;;;5113039;28;20043;-57
2021/12/02 00:08:53;;;;;;;12.38;1.90;;;4.00;99.90;;;;;;5111360;28;20549;-58
2021/12/02 00:11:20;;;;;;;8.23;1.80;;;3.90;99.90;;;;;;5111631;28;20040;-56
2021/12/02 00:21:09;;;;;;;6.85;1.60;;;3.80;99.90;;;;;;5112414;28;20424;-58
2021/12/02 00:23:49;;;;;;;9.18;1.88;;;3.80;99.90;;;;;;5111502;28;20054;-55
2021/12/02 00:26:18;;;;;;;5.93;1.58;;;3.80;99.90;;;;;;5112846;28;20069;-57
2021/12/02 00:28:46;;;;;;;7.45;1.80;;;3.80;99.90;;;;;;5111025;28;20047;-56
2021/12/02 00:31:17;;;;;;;10.98;2.20;;;3.80;99.90;;;;;;5112315;28;20055;-54
2021/12/02 00:33:49;;;;;;;8.07;1.67;;;3.70;99.90;;;;;;5112528;28;20087;-56
2021/12/02 00:36:16;;;;;;;10.73;2.30;;;3.70;99.90;;;;;;5112570;28;20393;-58
2021/12/02 00:38:44;;;;;;;6.82;1.80;;;3.70;99.90;;;;;;5112499;28;20113;-55
2021/12/02 00:41:22;;;;;;;7.93;1.50;;;3.70;99.90;;;;;;5112005;28;20075;-55
2021/12/02 00:43:50;;;;;;;7.30;2.33;;;3.80;99.90;;;;;;5112733;28;20040;-56
2021/12/02 00:46:20;;;;;;;4.80;1.58;;;3.80;99.90;;;;;;5112566;28;20043;-56
2021/12/02 00:48:46;;;;;;;6.78;1.40;;;3.90;99.90;;;;;;5112397;28;20047;-56
2021/12/02 00:51:14;;;;;;;8.65;1.50;;;3.90;99.90;;;;;;5111871;28;20051;-57
2021/12/02 00:53:51;;;;;;;8.88;1.60;;;4.00;99.90;;;;;;5127743;28;20096;-54
2021/12/02 00:56:21;;;;;;;10.18;1.90;;;4.00;99.90;;;;;;5112428;28;20104;-58
2021/12/02 00:58:48;;;;;;;8.55;1.70;;;4.00;99.90;;;;;;5112322;28;20460;-57
2021/12/02 01:01:19;;;;;;;6.60;1.58;;;4.00;99.90;;;;;;5110870;28;20392;-55
2021/12/02 01:03:48;;;;;;;7.72;1.90;;;4.00;99.90;;;;;;5113471;28;20044;-57
2021/12/02 01:06:14;;;;;;;10.18;1.48;;;4.00;99.90;;;;;;5115294;28;20396;-57
2021/12/02 01:08:40;;;;;;;9.18;2.13;;;4.00;99.90;;;;;;5116448;28;20093;-56
2021/12/02 01:11:08;;;;;;;7.03;1.40;;;3.90;99.90;;;;;;5115944;28;20111;-57
2021/12/02 01:13:34;;;;;;;5.57;1.42;;;3.90;99.90;;;;;;5116277;27;20047;-56
2021/12/02 01:16:00;;;;;;;3.95;1.30;;;3.90;99.90;;;;;;5116041;28;20401;-56
2021/12/02 01:18:26;;;;;;;5.78;1.08;;;3.90;99.90;;;;;;5116254;28;20149;-58
2021/12/02 01:20:53;;;;;;;8.27;1.55;;;3.90;99.90;;;;;;5115924;28;20526;-58
2021/12/02 01:23:21;;;;;;;3.10;1.33;;;3.90;99.90;;;;;;5114793;28;20099;-57
2021/12/02 01:26:08;;;;;;;12.73;1.75;;;3.90;99.90;;;;;;5131706;27;20433;-58
2021/12/02 01:28:36;;;;;;;9.45;1.67;;;3.90;99.90;;;;;;5116119;28;20051;-60
2021/12/02 01:31:03;;;;;;;7.38;1.63;;;3.90;99.90;;;;;;5115687;28;20043;-58
2021/12/02 01:33:29;;;;;;;5.70;1.40;;;3.90;99.90;;;;;;5115748;28;20177;-57
2021/12/02 01:36:03;;;;;;;6.00;1.35;;;3.90;99.90;;;;;;5116251;27;20168;-59
2021/12/02 01:38:30;;;;;;;5.97;1.13;;;3.90;99.90;;;;;;5114764;28;20055;-57
2021/12/02 01:40:57;;;;;;;4.93;1.30;;;3.90;99.90;;;;;;5115899;28;20086;-58
2021/12/02 01:43:45;;;;;;;7.63;1.30;;;3.80;99.90;;;;;;5113727;28;20151;-58
2021/12/02 01:46:13;;;;;;;4.32;0.88;;;3.80;99.90;;;;;;5115442;28;20457;-60
2021/12/02 01:48:41;;;;;;;6.30;1.40;;;3.80;99.90;;;;;;5115645;27;20054;-58
2021/12/02 01:51:11;;;;;;;4.90;1.50;;;3.80;99.90;;;;;;5115036;28;20376;-59
2021/12/02 01:53:40;;;;;;;9.38;1.73;;;3.70;99.90;;;;;;5114397;28;20048;-57
2021/12/02 01:56:12;;;;;;;4.97;1.30;;;3.70;99.90;;;;;;5114274;28;20043;-57
2021/12/02 01:59:11;;;;;;;4.60;1.45;;;3.70;99.90;;;;;;5115242;27;20481;-58
2021/12/02 02:01:40;;;;;;;8.15;1.88;;;3.70;99.90;;;;;;5114207;28;20441;-59
2021/12/02 02:04:07;;;;;;;4.47;1.10;;;3.70;99.90;;;;;;5130824;27;20061;-55
2021/12/02 02:06:55;;;;;;;6.82;2.05;;;3.70;99.90;;;;;;5115245;27;20043;-59
2021/12/02 02:09:22;;;;;;;5.53;1.38;;;3.70;99.90;;;;;;5114926;28;20092;-58
2021/12/02 02:11:48;;;;;;;7.15;1.50;;;3.70;99.90;;;;;;5114307;28;20055;-54
2021/12/02 02:14:14;;;;;;;5.10;1.20;;;3.60;99.90;;;;;;5114558;28;20065;-58
2021/12/02 02:16:41;;;;;;;8.27;1.30;;;3.60;99.90;;;;;;5113866;28;20130;-57
2021/12/02 02:19:11;;;;;;;4.82;1.30;;;3.60;99.90;;;;;;5114608;28;20086;-60
2021/12/02 02:21:37;;;;;;;8.00;2.42;;;3.60;99.90;;;;;;5114760;28;20043;-58
2021/12/02 02:24:07;;;;;;;8.35;1.40;;;3.50;99.90;;;;;;5114982;28;20047;-56
2021/12/02 02:26:36;;;;;;;3.13;1.10;;;3.50;99.90;;;;;;5114964;28;20126;-57
2021/12/02 02:29:05;;;;;;;6.80;1.58;;;3.50;99.90;;;;;;5114744;28;20124;-59
2021/12/02 02:31:32;;;;;;;3.13;1.10;;;3.50;99.90;;;;;;5113616;28;20052;-57
2021/12/02 02:33:59;;;;;;;3.72;1.15;;;3.50;99.90;;;;;;5114752;28;20114;-58
2021/12/02 02:36:31;;;;;;;6.82;1.20;;;3.60;99.90;;;;;;5114422;28;20330;-56
2021/12/02 02:38:58;;;;;;;6.43;1.83;;;3.60;99.90;;;;;;5113120;28;20040;-58
2021/12/02 02:41:33;;;;;;;7.80;1.50;;;3.60;99.90;;;;;;5114266;28;20044;-58
2021/12/02 02:44:00;;;;;;;4.20;1.38;;;3.60;99.90;;;;;;5113539;28;20048;-59
2021/12/02 02:46:38;;;;;;;7.40;1.20;;;3.60;99.90;;;;;;5114055;28;20333;-60
2021/12/02 02:49:06;;;;;;;5.70;1.17;;;3.60;99.90;;;;;;5113557;28;20130;-58
2021/12/02 02:51:33;;;;;;;8.32;1.50;;;3.70;99.90;;;;;;5114161;28;20062;-59
2021/12/02 02:54:05;;;;;;;3.83;1.05;;;3.70;99.90;;;;;;5114271;28;20051;-59
2021/12/02 02:56:35;;;;;;;4.38;1.17;;;3.70;99.90;;;;;;5114121;28;20044;-59
2021/12/02 03:01:44;;;;;;;2.55;1.02;;;3.60;99.90;;;;;;5114019;28;20112;-60
2021/12/02 03:09:25;;;;;;;4.10;1.00;;;3.50;99.90;;;;;;5113801;28;20062;-59
2021/12/02 03:12:18;;;;;;;4.55;1.00;;;3.50;99.90;;;;;;5113740;28;20047;-59
2021/12/02 03:17:11;;;;;;;1.63;0.80;;;3.40;99.90;;;;;;5112359;28;20051;-59
2021/12/02 03:19:45;;;;;;;3.20;0.73;;;3.40;99.90;;;;;;5113811;28;20047;-58
2021/12/02 03:22:13;;;;;;;3.42;0.65;;;3.30;99.90;;;;;;5113501;28;20047;-60
2021/12/02 03:24:39;;;;;;;1.40;0.52;;;3.30;99.90;;;;;;5113796;28;20080;-59
2021/12/02 03:27:05;;;;;;;1.88;0.68;;;3.20;99.90;;;;;;5111888;28;20106;-58
2021/12/02 03:29:30;;;;;;;2.25;0.75;;;3.20;99.90;;;;;;5113425;28;20051;-59
2021/12/02 03:31:56;;;;;;;5.63;1.35;;;3.10;99.90;;;;;;5112506;28;20051;-57
2021/12/02 03:34:22;;;;;;;1.15;0.50;;;3.00;99.90;;;;;;5112968;28;20066;-60
2021/12/02 03:36:52;;;;;;;3.78;0.75;;;3.00;99.90;;;;;;5113427;27;20043;-58
2021/12/02 03:39:18;;;;;;;0.50;0.43;;;2.90;99.90;;;;;;5112197;28;20059;-57
2021/12/02 03:41:44;;;;;;;2.00;0.57;;;2.80;99.90;;;;;;5113548;28;20047;-60
2021/12/02 03:44:10;;;;;;;1.80;0.60;;;2.70;99.90;;;;;;5113524;28;20119;-57
2021/12/02 03:46:37;;;;;;;1.13;0.60;;;2.70;99.90;;;;;;5112889;28;20095;-56
2021/12/02 03:49:03;;;;;;;1.38;0.50;;;2.70;99.90;;;;;;5113523;28;20143;-56
2021/12/02 03:51:29;;;;;;;1.20;0.63;;;2.70;99.90;;;;;;5111653;28;20047;-57
2021/12/02 03:53:55;;;;;;;4.65;1.08;;;2.70;99.90;;;;;;5113267;28;20190;-59
2021/12/02 03:56:22;;;;;;;0.65;0.50;;;2.70;99.90;;;;;;5112798;28;20043;-58
2021/12/02 03:58:49;;;;;;;3.25;0.77;;;2.70;99.90;;;;;;5113202;28;20112;-58
2021/12/02 04:01:15;;;;;;;2.83;0.60;;;2.70;99.90;;;;;;5113246;28;20044;-57
2021/12/02 04:03:42;;;;;;;1.00;0.60;;;2.70;99.90;;;;;;5113124;28;20043;-59
2021/12/02 04:06:08;;;;;;;2.45;0.75;;;2.70;99.90;;;;;;5113065;28;20374;-59
2021/12/02 04:11:45;;;;;;;0.80;0.50;;;2.60;99.90;;;;;;5111131;27;20466;-59
2021/12/02 04:16:40;;;;;;;3.33;0.80;;;2.60;99.90;;;;;;5112411;28;20059;-58
2021/12/02 04:19:08;;;;;;;4.32;1.33;;;2.60;99.90;;;;;;5112871;28;20048;-58
2021/12/02 04:21:34;;;;;;;3.10;1.30;;;2.60;99.90;;;;;;5112480;28;20051;-58
2021/12/02 04:24:01;;;;;;;2.75;0.82;;;2.50;99.90;;;;;;5112849;28;20042;-60
2021/12/02 04:26:27;;;;;;;2.83;0.77;;;2.50;99.90;;;;;;5112330;28;20047;-58
2021/12/02 04:28:52;;;;;;;1.67;0.60;;;2.50;99.90;;;;;;5112336;28;20438;-57
2021/12/02 04:31:18;;;;;;;2.83;1.00;;;2.50;99.90;;;;;;5111309;28;20130;-55
2021/12/02 04:33:44;;;;;;;1.77;0.90;;;2.50;99.90;;;;;;5111389;28;20036;-57
2021/12/02 04:36:11;;;;;;;4.63;0.85;;;2.60;99.90;;;;;;5112472;28;20098;-59
2021/12/02 04:38:37;;;;;;;1.73;0.90;;;2.50;99.90;;;;;;5111276;28;20094;-58
2021/12/02 04:41:03;;;;;;;1.88;0.70;;;2.50;99.90;;;;;;5112487;28;20044;-60
2021/12/02 04:43:29;;;;;;;1.77;0.90;;;2.60;99.90;;;;;;5112102;28;20043;-60
2021/12/02 04:45:55;;;;;;;0.90;0.60;;;2.60;99.90;;;;;;5111374;28;20130;-60
2021/12/02 04:48:21;;;;;;;1.65;0.70;;;2.60;99.90;;;;;;5112112;28;20073;-63
2021/12/02 04:50:47;;;;;;;4.22;0.90;;;2.50;99.90;;;;;;5112269;28;20040;-61
2021/12/02 04:53:13;;;;;;;4.30;0.93;;;2.50;99.90;;;;;;5111911;28;20489;-60
2021/12/02 04:55:40;;;;;;;2.88;0.93;;;2.50;99.90;;;;;;5111992;28;20062;-59
2021/12/02 04:58:06;;;;;;;2.72;0.90;;;2.40;99.90;;;;;;5112206;28;20066;-60
2021/12/02 05:00:32;;;;;;;3.25;0.93;;;2.50;99.90;;;;;;5110745;28;20385;-58
2021/12/02 05:02:58;;;;;;;2.45;1.08;;;2.50;99.90;;;;;;5111944;28;20557;-59
2021/12/02 05:05:24;;;;;;;3.13;1.10;;;2.50;99.90;;;;;;5111972;28;20123;-60
2021/12/02 05:07:53;;;;;;;1.60;0.95;;;2.50;99.90;;;;;;5112088;28;20051;-61
2021/12/02 05:10:20;;;;;;;1.63;0.90;;;2.50;99.90;;;;;;5111943;28;20051;-59
2021/12/02 05:12:46;;;;;;;3.63;1.42;;;2.60;99.90;;;;;;5110958;28;20079;-61
2021/12/02 05:15:12;;;;;;;4.60;1.30;;;2.60;99.90;;;;;;5110818;28;20086;-60
2021/12/02 05:17:37;;;;;;;4.22;0.98;;;2.50;99.90;;;;;;5111793;28;20400;-61
2021/12/02 05:20:07;;;;;;;2.47;1.10;;;2.50;99.90;;;;;;5127986;28;20050;-61
2021/12/02 05:22:33;;;;;;;3.13;0.90;;;2.60;99.90;;;;;;5111523;28;20515;-61
2021/12/02 05:24:59;;;;;;;1.90;0.75;;;2.60;99.90;;;;;;5128139;28;20075;-61
2021/12/02 05:27:25;;;;;;;2.95;0.80;;;2.60;99.90;;;;;;5111771;28;20058;-60
2021/12/02 05:29:50;;;;;;;3.53;0.85;;;2.50;99.90;;;;;;5111927;28;20477;-60
2021/12/02 05:32:16;;;;;;;1.13;0.55;;;2.60;99.90;;;;;;5111937;28;20057;-60
2021/12/02 05:34:47;;;;;;;2.42;0.68;;;2.60;99.90;;;;;;5111605;28;20117;-61
2021/12/02 05:37:13;;;;;;;0.70;0.60;;;2.50;99.90;;;;;;5093918;28;20489;-61
2021/12/02 05:39:38;;;;;;;3.97;1.00;;;2.50;99.90;;;;;;5127647;28;20405;-60
2021/12/02 05:42:04;;;;;;;4.97;0.90;;;2.50;99.90;;;;;;5127684;28;20044;-60
2021/12/02 05:44:30;;;;;;;1.70;0.70;;;2.50;99.90;;;;;;5111575;28;20036;-61
2021/12/02 05:46:56;;;;;;;2.45;0.82;;;2.50;99.90;;;;;;5127695;28;20059;-60
2021/12/02 05:49:21;;;;;;;1.67;0.90;;;2.50;99.90;;;;;;5112185;28;20074;-59
2021/12/02 05:51:47;;;;;;;2.63;0.70;;;2.50;99.90;;;;;;5115070;28;20070;-60
2021/12/02 05:54:13;;;;;;;3.50;1.02;;;2.40;99.90;;;;;;5114539;28;20497;-61
2021/12/02 05:56:40;;;;;;;5.22;1.10;;;2.40;99.90;;;;;;5115159;28;20047;-61
2021/12/02 05:59:07;;;;;;;4.05;0.90;;;2.40;99.90;;;;;;5115588;28;20047;-59
2021/12/02 06:01:33;;;;;;;3.00;0.80;;;2.40;99.90;;;;;;5114859;28;20618;-61
2021/12/02 06:03:59;;;;;;;3.15;1.10;;;2.40;99.90;;;;;;5115175;28;20114;-60
2021/12/02 06:06:26;;;;;;;6.15;1.23;;;2.70;99.90;;;;;;5114477;28;20185;-60
2021/12/02 06:08:52;;;;;;;2.72;1.10;;;2.40;99.90;;;;;;5113884;28;20087;-60
2021/12/02 06:11:18;;;;;;;2.25;0.93;;;2.40;99.90;;;;;;5115227;28;20040;-60
2021/12/02 06:13:46;;;;;;;4.30;1.10;;;2.40;99.90;;;;;;5114777;28;20038;-60
2021/12/02 06:16:13;;;;;;;1.63;0.90;;;2.40;99.90;;;;;;5114993;27;20515;-60
2021/12/02 06:18:39;;;;;;;6.30;1.20;;;2.40;99.90;;;;;;5114867;28;20047;-60
2021/12/02 06:21:05;;;;;;;2.78;0.93;;;2.50;99.90;;;;;;5115156;28;20047;-60
2021/12/02 06:23:30;;;;;;;2.67;1.10;;;2.30;99.90;;;;;;5114889;28;20051;-61
2021/12/02 06:25:56;;;;;;;3.80;1.60;;;2.30;99.90;;;;;;5130692;27;20049;-61
2021/12/02 06:28:22;;;;;;;1.90;0.88;;;2.30;99.90;;;;;;5114021;28;20267;-61
2021/12/02 06:30:48;;;;;;;2.70;0.90;;;2.30;99.90;;;;;;5114696;28;20074;-60
2021/12/02 06:33:14;;;;;;;5.10;1.30;;;2.30;99.90;;;;;;5114615;28;20469;-60
2021/12/02 06:35:40;;;;;;;3.28;1.02;;;2.40;99.90;;;;;;5113240;28;20043;-60
2021/12/02 06:38:07;;;;;;;2.03;0.70;;;2.30;99.90;;;;;;5114745;28;20397;-59
2021/12/02 06:40:34;;;;;;;8.95;5.50;;;2.40;99.90;;;;;;5113410;28;20047;-60
2021/12/02 06:43:01;;;;;;;7.65;1.52;;;2.40;99.90;;;;;;5114899;28;20050;-61
2021/12/02 06:45:27;;;;;;;6.72;2.22;;;2.40;99.90;;;;;;5113437;28;20058;-59
2021/12/02 06:47:58;;;;;;;3.50;1.02;;;2.40;99.90;;;;;;5114284;28;20055;-60
2021/12/02 06:50:24;;;;;;;3.85;1.45;;;2.40;99.90;;;;;;5114040;28;20044;-61
2021/12/02 06:52:51;;;;;;;3.25;1.05;;;2.40;99.90;;;;;;5113435;28;20065;-60
2021/12/02 06:55:18;;;;;;;3.50;1.10;;;2.50;99.90;;;;;;5114411;28;20059;-60
2021/12/02 06:57:44;;;;;;;2.67;1.33;;;2.40;99.90;;;;;;5113967;28;20140;-60
2021/12/02 07:00:14;;;;;;;2.50;0.88;;;2.40;99.90;;;;;;5114340;28;20047;-60
2021/12/02 07:02:40;;;;;;;2.45;0.93;;;2.40;99.90;;;;;;5111690;28;20063;-60
2021/12/02 07:05:08;;;;;;;3.00;1.25;;;2.40;99.90;;;;;;5112639;28;20052;-59
2021/12/02 07:07:36;;;;;;;3.28;1.05;;;2.40;99.90;;;;;;5113397;28;20047;-60
2021/12/02 07:10:18;;;;;;;4.40;1.17;;;2.40;99.90;;;;;;5113374;28;20100;-62
2021/12/02 07:12:47;;;;;;;2.08;1.20;;;2.40;99.90;;;;;;5113548;28;20051;-59
2021/12/02 07:15:18;;;;;;;2.78;1.60;;;2.40;99.90;;;;;;5113449;28;20044;-60
2021/12/02 07:17:45;;;;;;;3.95;0.90;;;2.40;99.90;;;;;;5113181;28;20047;-59
2021/12/02 07:20:12;;;;;;;2.45;1.10;;;2.30;99.90;;;;;;5113533;28;20048;-60
2021/12/02 07:22:38;;;;;;;1.73;0.95;;;2.30;99.90;;;;;;5113358;27;20036;-60
2021/12/02 07:25:05;;;;;;;3.53;1.25;;;2.30;99.90;;;;;;5128914;27;20404;-60
2021/12/02 07:27:31;;;;;;;2.78;1.25;;;2.30;99.90;;;;;;5129169;27;20439;-61
2021/12/02 07:29:57;;;;;;;2.75;1.23;;;2.20;99.90;;;;;;5111503;28;20093;-60
2021/12/02 07:32:30;;;;;;;3.28;1.60;;;2.20;99.90;;;;;;5112004;28;20116;-60
2021/12/02 07:35:00;;;;;;;1.98;1.27;;;2.20;99.90;;;;;;5112742;28;20043;-60
2021/12/02 07:37:27;;;;;;;3.33;1.40;;;2.20;99.90;;;;;;5112000;28;20461;-59
2021/12/02 07:39:53;;;;;;;2.88;1.25;;;2.20;99.90;;;;;;5112813;28;20047;-59
2021/12/02 07:42:19;;;;;;;6.35;1.40;;;2.10;99.90;;;;;;5112259;28;20475;-59
2021/12/02 07:44:46;;;;;;;5.07;1.70;;;2.20;99.90;;;;;;5112882;28;20047;-62
2021/12/02 07:47:13;;;;;;;2.40;1.23;;;2.10;99.90;;;;;;5113225;28;20043;-61
2021/12/02 07:49:39;;;;;;;2.38;1.20;;;2.10;99.90;;;;;;5129275;27;20481;-61
2021/12/02 07:52:07;;;;;;;4.47;1.50;;;2.30;99.90;;;;;;5112560;28;20689;-59
2021/12/02 07:54:33;;;;;;;5.38;1.30;;;2.10;99.90;;;;;;5112214;28;20048;-60
2021/12/02 07:57:00;;;;;;;4.30;1.23;;;2.10;99.90;;;;;;5110905;28;20054;-60
2021/12/02 07:59:27;;;;;;;3.25;1.25;;;2.10;99.90;;;;;;5113003;28;20051;-59
2021/12/02 08:02:00;;;;;;;2.65;1.35;;;2.10;99.90;;;;;;5128170;27;20043;-60
2021/12/02 08:04:26;;;;;;;4.90;1.58;;;2.20;99.90;;;;;;5112976;28;20055;-60
2021/12/02 08:06:51;;;;;;;6.50;1.85;;;2.20;99.90;;;;;;5111236;28;20114;-59
2021/12/02 08:09:17;;;;;;;2.50;1.63;;;2.20;99.90;;;;;;5112870;28;20122;-59
2021/12/02 08:11:43;;;;;;;3.97;1.67;;;2.20;99.90;;;;;;5128596;27;20100;-61
2021/12/02 08:14:15;;;;;;;5.45;2.53;;;2.30;99.90;;;;;;5127786;27;20270;-59
2021/12/02 08:16:41;;;;;;;3.40;2.05;;;2.40;99.90;;;;;;5111567;28;20051;-61
2021/12/02 08:19:06;;;;;;;4.05;2.13;;;2.60;99.90;;;;;;5127839;27;20047;-60
2021/12/02 08:21:32;;;;;;;5.13;2.47;;;2.60;99.90;;;;;;5128428;27;20048;-61
2021/12/02 08:23:58;;;;;;;3.92;2.33;;;2.80;99.90;;;;;;5110993;28;20134;-60
2021/12/02 08:26:24;;;;;;;5.47;3.13;;;2.80;99.90;;;;;;5128351;27;20050;-61
2021/12/02 08:28:50;;;;;;;5.68;3.20;;;2.80;99.90;;;;;;5112197;28;20044;-63
2021/12/02 08:31:16;;;;;;;5.43;2.88;;;2.90;99.90;;;;;;5112799;28;20413;-60
2021/12/02 08:33:42;;;;;;;6.38;3.30;;;2.90;99.90;;;;;;5112286;28;20108;-62
2021/12/02 08:36:08;;;;;;;5.63;3.65;;;2.90;99.90;;;;;;5111998;28;20050;-60
2021/12/02 08:38:36;;;;;;;6.07;4.10;;;2.90;99.90;;;;;;5112311;28;20091;-60
2021/12/02 08:41:02;;;;;;;7.22;3.13;;;3.00;99.90;;;;;;5111923;28;20621;-61
2021/12/02 08:43:29;;;;;;;6.68;3.75;;;3.00;99.90;;;;;;5111327;28;20126;-60
2021/12/02 08:45:55;;;;;;;6.28;3.15;;;3.10;99.90;;;;;;5111774;28;20051;-60
2021/12/02 08:48:21;;;;;;;7.88;3.42;;;3.10;99.90;;;;;;5111254;28;20075;-59
2021/12/02 08:50:47;;;;;;;7.20;3.03;;;3.20;99.90;;;;;;5111058;28;20185;-62
2021/12/02 08:53:13;;;;;;;5.07;2.83;;;3.20;99.90;;;;;;5111716;28;20055;-61
2021/12/02 08:55:40;;;;;;;6.65;2.88;;;3.20;99.90;;;;;;5110899;28;20062;-60
2021/12/02 08:58:09;;;;;;;4.30;2.80;;;3.20;99.90;;;;;;5111738;28;20054;-61
2021/12/02 09:00:36;;;;;;;3.58;2.70;;;3.10;99.90;;;;;;5111917;28;20126;-60
2021/12/02 09:03:07;;;;;;;6.10;2.72;;;3.10;99.90;;;;;;5111685;28;20055;-60
2021/12/02 09:05:34;;;;;;;5.20;2.20;;;3.10;99.90;;;;;;5111980;28;20077;-61
2021/12/02 09:08:00;;;;;;;6.00;2.58;;;3.10;99.90;;;;;;5111619;28;20070;-60
2021/12/02 09:10:27;;;;;;;4.00;2.10;;;3.10;99.90;;;;;;5127648;28;20131;-61
2021/12/02 09:12:53;;;;;;;3.22;1.70;;;3.10;99.90;;;;;;5110760;28;20057;-61
2021/12/02 09:15:20;;;;;;;3.38;1.80;;;3.20;99.90;;;;;;5110319;28;20039;-61
2021/12/02 09:17:47;;;;;;;6.43;2.10;;;3.10;99.90;;;;;;5110681;28;20048;-60
2021/12/02 09:20:15;;;;;;;4.32;2.00;;;3.20;99.90;;;;;;5111517;28;20127;-60
2021/12/02 09:22:43;;;;;;;7.82;2.33;;;3.20;99.90;;;;;;5111926;28;20047;-61
2021/12/02 09:25:10;;;;;;;5.30;1.90;;;3.20;99.90;;;;;;5113318;28;20047;-60
2021/12/02 09:27:36;;;;;;;3.15;1.65;;;3.30;99.90;;;;;;5115944;28;20051;-61
2021/12/02 09:30:03;;;;;;;4.30;1.70;;;3.20;99.90;;;;;;5115559;28;20048;-60
2021/12/02 09:32:29;;;;;;;4.82;1.88;;;3.20;99.90;;;;;;5114616;28;20393;-61
2021/12/02 09:34:55;;;;;;;3.15;1.45;;;3.30;99.90;;;;;;5114632;28;20052;-60
2021/12/02 09:37:21;;;;;;;2.75;1.40;;;3.30;99.90;;;;;;5115256;28;20063;-61
2021/12/02 09:39:47;;;;;;;2.40;1.55;;;3.30;99.90;;;;;;5115498;28;20047;-59
2021/12/02 09:42:14;;;;;;;5.55;2.00;;;3.30;99.90;;;;;;5115189;28;20039;-61
2021/12/02 09:44:44;;;;;;;4.75;1.88;;;3.20;99.90;;;;;;5114594;28;20055;-62
2021/12/02 09:47:10;;;;;;;5.60;2.17;;;3.10;99.90;;;;;;5114973;28;20055;-61
2021/12/02 09:49:36;;;;;;;3.20;1.73;;;3.00;99.90;;;;;;5115386;28;20043;-61
2021/12/02 09:52:04;;;;;;;3.38;1.30;;;2.70;99.90;;;;;;5112950;28;20082;-65
2021/12/02 09:54:43;;;;;;;0.95;0.82;;;2.50;99.90;;;;;;5113706;28;20051;-61
2021/12/02 09:57:13;;;;;;;1.83;0.88;;;2.30;99.90;;;;;;5113560;28;20480;-60
2021/12/02 10:02:13;;;;;;;2.10;1.20;;;1.90;99.90;;;;;;5114814;28;20059;-62
2021/12/02 10:04:54;;;;;;;4.93;1.38;;;1.90;99.90;;;;;;5115299;28;20047;-61
2021/12/02 10:07:35;;;;;;;2.03;1.17;;;1.90;99.90;;;;;;5129204;27;20047;-61
2021/12/02 10:10:13;;;;;;;2.60;1.45;;;1.90;99.90;;;;;;5114005;28;20105;-61
2021/12/02 10:12:51;;;;;;;3.60;1.30;;;1.90;99.90;;;;;;5115185;28;20044;-61
2021/12/02 10:15:18;;;;;;;2.40;1.20;;;1.90;99.90;;;;;;5113395;28;20485;-61
2021/12/02 10:17:47;;;;;;;2.70;1.13;;;2.00;99.90;;;;;;5114949;28;20051;-61
2021/12/02 10:23:13;;;;;;;6.32;3.28;;;2.20;99.90;;;;;;5113638;28;20105;-60
2021/12/02 10:25:44;;;;;;;5.90;4.00;;;2.10;99.90;;;;;;5113526;28;20059;-61
2021/12/02 10:28:12;;;;;;;5.15;2.70;;;2.30;99.90;;;;;;5113954;28;20083;-61
2021/12/02 10:30:50;;;;;;;3.85;1.95;;;2.30;99.90;;;;;;5114429;28;20086;-61
2021/12/02 10:33:54;;;;;;;5.20;1.80;;;2.40;99.90;;;;;;5097057;28;20054;-60
2021/12/02 10:36:31;;;;;;;4.53;1.90;;;2.50;99.90;;;;;;5112633;27;20067;-60
2021/12/02 10:39:08;;;;;;;4.25;1.77;;;2.60;99.90;;;;;;5114612;28;20047;-61
2021/12/02 10:41:34;;;;;;;3.38;1.75;;;2.60;99.90;;;;;;5130371;27;20054;-61
2021/12/02 10:44:16;;;;;;;3.50;1.50;;;2.60;99.90;;;;;;5112993;28;20056;-61
2021/12/02 10:46:54;;;;;;;4.40;1.63;;;2.50;99.90;;;;;;5114420;28;20066;-63
2021/12/02 10:49:21;;;;;;;2.38;1.38;;;2.40;99.90;;;;;;5112369;28;20400;-62
2021/12/02 10:51:52;;;;;;;1.23;1.08;;;2.40;99.90;;;;;;5113107;28;20046;-61
2021/12/02 10:54:30;;;;;;;3.00;1.95;;;2.50;99.90;;;;;;5113707;28;20129;-61
2021/12/02 10:56:59;;;;;;;3.83;1.10;;;2.50;99.90;;;;;;5114077;28;20043;-61
2021/12/02 10:59:48;;;;;;;4.57;1.50;;;2.50;99.90;;;;;;5113648;28;20629;-60
2021/12/02 11:02:34;;;;;;;4.82;1.73;;;2.40;99.90;;;;;;5113184;28;20512;-61
2021/12/02 11:05:25;;;;;;;1.67;1.20;;;2.40;99.90;;;;;;5112850;28;20052;-60
2021/12/02 11:07:56;;;;;;;2.22;1.08;;;2.30;99.90;;;;;;5114042;28;20104;-59
2021/12/02 11:10:24;;;;;;;1.00;0.60;;;2.30;99.90;;;;;;5129301;27;20457;-59
2021/12/02 11:12:52;;;;;;;0.95;0.93;;;2.20;99.90;;;;;;5113626;28;20052;-61
2021/12/02 11:15:27;;;;;;;1.85;0.82;;;2.10;99.90;;;;;;5112471;28;20040;-61
2021/12/02 11:18:05;;;;;;;1.95;0.70;;;2.10;99.90;;;;;;5113279;28;20405;-60
2021/12/02 11:20:38;;;;;;;2.05;1.08;;;2.10;99.90;;;;;;5113428;28;20299;-61
2021/12/02 11:23:10;;;;;;;1.27;0.88;;;2.10;99.90;;;;;;5113485;28;20131;-60
2021/12/02 11:25:58;;;;;;;2.42;1.17;;;2.20;99.90;;;;;;5112701;28;20050;-61
2021/12/02 11:28:28;;;;;;;3.00;1.00;;;2.30;99.90;;;;;;5112557;27;20051;-61
2021/12/02 11:30:56;;;;;;;2.40;1.08;;;2.40;99.90;;;;;;5095533;28;20082;-60
2021/12/02 11:33:35;;;;;;;3.80;1.40;;;2.50;99.90;;;;;;5112889;28;20404;-60
2021/12/02 11:36:01;;;;;;;3.05;1.38;;;2.50;99.90;;;;;;5113363;28;20493;-61
2021/12/02 11:38:28;;;;;;;1.35;1.10;;;2.50;99.90;;;;;;5112934;28;20127;-61
2021/12/02 11:40:59;;;;;;;1.38;1.00;;;2.50;99.90;;;;;;5113121;28;20122;-61
2021/12/02 11:43:27;;;;;;;2.22;1.02;;;2.50;99.90;;;;;;5112857;28;20051;-61
2021/12/02 11:45:55;;;;;;;1.55;0.90;;;2.60;99.90;;;;;;5113086;28;20405;-61
2021/12/02 11:48:32;;;;;;;2.13;0.90;;;2.60;99.90;;;;;;5112350;27;20100;-60
2021/12/02 11:51:01;;;;;;;5.95;1.08;;;2.60;99.90;;;;;;5113321;28;20079;-61
2021/12/02 11:53:27;;;;;;;1.40;0.90;;;2.60;99.90;;;;;;5112888;28;20094;-59
2021/12/02 11:55:57;;;;;;;2.45;1.30;;;2.60;99.90;;;;;;5111628;28;20083;-60
2021/12/02 11:58:24;;;;;;;2.13;1.17;;;2.60;99.90;;;;;;5111060;28;20051;-60
2021/12/02 12:00:50;;;;;;;2.47;1.05;;;3.10;99.90;;;;;;5113091;28;20047;-60
2021/12/02 12:03:24;;;;;;;1.95;0.90;;;2.70;99.90;;;;;;5111503;28;20047;-63
2021/12/02 12:05:57;;;;;;;3.05;0.77;;;2.80;99.90;;;;;;5111814;28;20045;-60
2021/12/02 12:08:35;;;;;;;1.20;0.68;;;2.80;99.90;;;;;;5111471;28;20048;-61
2021/12/02 12:11:24;;;;;;;1.10;0.73;;;2.80;99.90;;;;;;5112864;28;20086;-60
2021/12/02 12:13:53;;;;;;;1.05;0.90;;;2.80;99.90;;;;;;5111580;28;20059;-60
2021/12/02 12:16:23;;;;;;;3.22;1.35;;;2.80;99.90;;;;;;5112069;28;20104;-63
2021/12/02 12:18:50;;;;;;;2.60;0.93;;;2.70;99.90;;;;;;5112390;28;20131;-60
2021/12/02 12:21:16;;;;;;;3.58;0.90;;;2.70;99.90;;;;;;5112551;28;20050;-60
2021/12/02 12:23:44;;;;;;;4.78;0.80;;;2.60;99.90;;;;;;5110797;28;20044;-60
2021/12/02 12:26:36;;;;;;;1.42;0.70;;;2.50;99.90;;;;;;5110925;28;20051;-60
2021/12/02 12:29:08;;;;;;;0.60;0.60;;;2.40;99.90;;;;;;5112593;28;20055;-60
2021/12/02 12:32:14;;;;;;;1.52;0.60;;;2.20;99.90;;;;;;5110902;28;20399;-60
2021/12/02 12:37:23;;;;;;;0.50;0.50;;;2.10;99.90;;;;;;5112298;28;19965;-59
2021/12/02 12:40:09;;;;;;;0.30;0.30;;;2.20;99.90;;;;;;5112412;28;20491;-60
2021/12/02 12:42:47;;;;;;;0.40;0.40;;;2.10;99.90;;;;;;5111836;28;20050;-60
2021/12/02 12:45:28;;;;;;;0.57;0.55;;;2.20;99.90;;;;;;5110869;28;20131;-59
2021/12/02 12:48:03;;;;;;;0.68;0.60;;;2.20;99.90;;;;;;5112214;28;20118;-59
2021/12/02 12:50:36;;;;;;;1.10;0.95;;;2.20;99.90;;;;;;5111828;28;20051;-60
2021/12/02 12:53:04;;;;;;;0.77;0.77;;;2.30;99.90;;;;;;5110775;28;20412;-60
2021/12/02 12:55:42;;;;;;;1.00;0.90;;;2.30;99.90;;;;;;5111376;28;20047;-60
2021/12/02 12:58:09;;;;;;;0.73;0.73;;;2.40;99.90;;;;;;5111059;28;20052;-59
2021/12/02 13:00:36;;;;;;;0.57;0.57;;;2.40;99.90;;;;;;5109590;28;20500;-61
2021/12/02 13:03:15;;;;;;;0.77;0.77;;;2.40;99.90;;;;;;5112090;28;20122;-60
2021/12/02 13:05:46;;;;;;;2.08;1.15;;;2.40;99.90;;;;;;5111378;28;20047;-59
2021/12/02 13:08:46;;;;;;;1.52;0.80;;;2.50;99.90;;;;;;5112087;28;20082;-60
2021/12/02 13:11:24;;;;;;;1.80;0.80;;;2.50;99.90;;;;;;5112118;28;20401;-60
2021/12/02 13:13:52;;;;;;;0.70;0.70;;;2.70;99.90;;;;;;5110292;28;20108;-60
2021/12/02 13:16:20;;;;;;;1.63;1.30;;;2.80;99.90;;;;;;5110740;28;20134;-60
2021/12/02 13:18:49;;;;;;;1.42;1.00;;;2.90;99.90;;;;;;5111272;28;20036;-60
2021/12/02 13:21:24;;;;;;;2.10;1.13;;;3.00;99.90;;;;;;5111767;28;20051;-59
2021/12/02 13:24:00;;;;;;;3.47;1.08;;;3.10;99.90;;;;;;5111761;28;20062;-60
2021/12/02 13:26:32;;;;;;;2.65;0.90;;;3.20;99.90;;;;;;5127449;28;20048;-63
2021/12/02 13:29:03;;;;;;;3.22;0.63;;;3.30;99.90;;;;;;5110843;28;20055;-59
2021/12/02 13:31:30;;;;;;;0.90;0.70;;;3.30;99.90;;;;;;5127220;28;20052;-59
2021/12/02 13:34:16;;;;;;;0.95;0.50;;;3.40;99.90;;;;;;5111617;28;20058;-60
2021/12/02 13:36:51;;;;;;;1.00;1.00;;;3.50;99.90;;;;;;5110940;28;20059;-60
2021/12/02 13:39:26;;;;;;;1.13;0.75;;;3.40;99.90;;;;;;5110895;28;20040;-60
2021/12/02 13:42:00;;;;;;;2.33;0.82;;;3.40;99.90;;;;;;5111475;28;20048;-59